createdAt,value
2023-05-21T00:00:27.052Z,63.12
2023-05-21T00:04:40.919Z,63.51
2023-05-21T00:08:54.170Z,63.74
2023-05-21T00:13:06.591Z,64.52
2023-05-21T00:17:18.977Z,64.30
2023-05-21T00:21:31.964Z,64.93
2023-05-21T00:25:45.510Z,64.75
2023-05-21T00:29:58.030Z,64.29
2023-05-21T00:34:10.429Z,63.49
2023-05-21T00:38:23.611Z,62.02
2023-05-21T00:42:40.260Z,61.70
2023-05-21T00:46:56.446Z,64.05
2023-05-21T00:51:09.282Z,63.93
2023-05-21T00:55:22.204Z,64.53
2023-05-21T00:59:34.966Z,65.03
2023-05-21T01:03:49.091Z,65.26
2023-05-21T01:08:02.283Z,65.67
2023-05-21T01:12:15.681Z,65.46
2023-05-21T01:16:28.180Z,65.77
2023-05-21T01:20:42.813Z,65.90
2023-05-21T01:24:55.937Z,65.93
2023-05-21T01:29:13.423Z,67.00
2023-05-21T01:33:48.062Z,66.47
2023-05-21T01:38:20.648Z,67.33
2023-05-21T01:42:36.484Z,67.61
2023-05-21T01:46:50.081Z,66.66
2023-05-21T01:51:06.956Z,68.00
2023-05-21T01:55:26.240Z,67.18
2023-05-21T01:59:39.178Z,67.52
2023-05-21T02:03:51.775Z,68.50
2023-05-21T02:08:05.771Z,68.45
2023-05-21T02:12:18.253Z,67.41
2023-05-21T02:16:30.842Z,67.57
2023-05-21T02:20:43.954Z,67.08
2023-05-21T02:24:56.336Z,68.29
2023-05-21T02:29:09.191Z,68.66
2023-05-21T02:33:22.212Z,68.40
2023-05-21T02:37:34.724Z,67.14
2023-05-21T02:41:47.673Z,67.10
2023-05-21T02:46:00.716Z,67.98
2023-05-21T02:50:14.637Z,68.21
2023-05-21T02:54:35.738Z,69.05
2023-05-21T02:58:48.222Z,68.81
2023-05-21T03:03:03.631Z,68.76
2023-05-21T03:07:19.320Z,69.11
2023-05-21T03:11:32.292Z,69.11
2023-05-21T03:15:44.806Z,69.58
2023-05-21T03:19:57.195Z,70.09
2023-05-21T03:24:10.009Z,70.83
2023-05-21T03:28:22.485Z,70.85
2023-05-21T03:32:38.232Z,71.10
2023-05-21T03:36:51.611Z,71.83
2023-05-21T03:41:04.693Z,72.96
2023-05-21T03:45:17.161Z,72.92
2023-05-21T03:49:51.743Z,73.37
2023-05-21T03:54:05.481Z,73.00
2023-05-21T03:58:18.674Z,73.23
2023-05-21T04:02:32.187Z,73.71
2023-05-21T04:06:44.640Z,72.63
2023-05-21T04:10:58.268Z,71.72
2023-05-21T04:15:11.066Z,69.92
2023-05-21T04:19:23.516Z,69.92
2023-05-21T04:23:38.194Z,68.65
2023-05-21T04:27:57.304Z,67.67
2023-05-21T04:32:11.270Z,62.99
2023-05-21T04:36:24.695Z,55.85
2023-05-21T04:40:37.087Z,53.88
2023-05-21T04:44:49.782Z,57.16
2023-05-21T04:49:06.138Z,51.87
2023-05-21T04:53:18.569Z,52.21
2023-05-21T04:57:31.149Z,50.44
2023-05-21T05:01:44.832Z,47.24
2023-05-21T05:05:57.235Z,44.68
2023-05-21T05:10:11.648Z,45.74
2023-05-21T05:14:24.164Z,44.06
2023-05-21T05:18:37.080Z,43.47
2023-05-21T05:22:49.753Z,40.92
2023-05-21T05:27:03.027Z,41.25
2023-05-21T05:31:16.193Z,41.03
2023-05-21T05:35:29.335Z,41.01
2023-05-21T05:39:42.041Z,43.06
2023-05-21T05:43:54.527Z,44.92
2023-05-21T05:48:08.041Z,45.83
2023-05-21T05:52:20.795Z,46.35
2023-05-21T05:56:33.500Z,47.45
2023-05-21T06:00:46.400Z,45.52
2023-05-21T06:04:58.924Z,44.62
2023-05-21T06:09:11.403Z,48.59
2023-05-21T06:13:23.818Z,50.78
2023-05-21T06:17:36.572Z,52.85
2023-05-21T06:21:49.365Z,51.67
2023-05-21T06:26:02.927Z,50.65
2023-05-21T06:30:15.609Z,50.90
2023-05-21T06:34:29.072Z,50.35
2023-05-21T06:38:42.946Z,48.85
2023-05-21T06:42:56.702Z,47.17
2023-05-21T06:47:27.725Z,47.68
2023-05-21T06:51:40.410Z,47.93
2023-05-21T06:55:54.060Z,49.67
2023-05-21T07:00:26.832Z,47.95
2023-05-21T07:04:39.456Z,45.27
2023-05-21T07:08:52.052Z,46.63
2023-05-21T07:13:04.786Z,46.93
2023-05-21T07:17:17.370Z,44.44
2023-05-21T07:21:29.927Z,42.21
2023-05-21T07:25:42.672Z,40.63
2023-05-21T07:29:55.237Z,39.51
2023-05-21T07:34:08.336Z,39.50
2023-05-21T07:38:20.886Z,39.13
2023-05-21T07:42:33.388Z,39.15
2023-05-21T07:46:46.827Z,38.18
2023-05-21T07:51:00.361Z,36.40
2023-05-21T07:55:13.738Z,38.29
2023-05-21T07:59:26.865Z,36.35
2023-05-21T08:03:39.728Z,36.74
2023-05-21T08:07:53.025Z,34.20
2023-05-21T08:12:06.861Z,33.02
2023-05-21T08:16:21.535Z,34.24
2023-05-21T08:20:34.598Z,36.82
2023-05-21T08:24:48.591Z,37.25
2023-05-21T08:29:01.159Z,34.32
2023-05-21T08:33:14.390Z,34.47
2023-05-21T08:37:26.909Z,34.93
2023-05-21T08:41:58.013Z,35.58
2023-05-21T08:46:11.338Z,36.21
2023-05-21T08:50:28.308Z,36.23
2023-05-21T08:54:46.067Z,36.02
2023-05-21T08:59:02.580Z,36.47
2023-05-21T09:03:22.808Z,37.45
2023-05-21T09:07:52.470Z,37.36
2023-05-21T09:12:38.405Z,37.51
2023-05-21T09:16:51.172Z,37.75
2023-05-21T09:21:27.329Z,37.12
2023-05-21T09:25:54.681Z,36.98
2023-05-21T09:30:15.333Z,37.71
2023-05-21T09:34:28.735Z,41.41
2023-05-21T09:38:42.877Z,40.21
2023-05-21T09:42:55.945Z,42.00
2023-05-21T09:47:09.979Z,41.64
2023-05-21T09:51:22.553Z,43.65
2023-05-21T09:55:39.697Z,42.98
2023-05-21T09:59:52.268Z,43.51
2023-05-21T10:04:08.939Z,43.21
2023-05-21T10:08:25.979Z,43.58
2023-05-21T10:12:40.131Z,40.85
2023-05-21T10:16:54.836Z,40.82
2023-05-21T10:21:09.092Z,41.39
2023-05-21T10:25:22.630Z,41.02
2023-05-21T10:29:37.441Z,40.90
2023-05-21T10:33:51.189Z,42.34
2023-05-21T10:38:05.338Z,43.13
2023-05-21T10:42:33.069Z,43.60
2023-05-21T10:47:09.603Z,43.64
2023-05-21T10:52:06.809Z,44.77
2023-05-21T10:56:26.064Z,44.47
2023-05-21T11:00:38.937Z,43.73
2023-05-21T11:04:59.408Z,43.80
2023-05-21T11:09:14.045Z,42.80
2023-05-21T11:13:27.576Z,42.02
2023-05-21T11:17:42.309Z,42.07
2023-05-21T11:21:55.951Z,41.62
2023-05-21T11:26:08.421Z,41.66
2023-05-21T11:30:20.937Z,41.82
2023-05-21T11:34:41.183Z,40.82
2023-05-21T11:39:24.234Z,40.94
2023-05-21T11:43:41.250Z,40.75
2023-05-21T11:47:53.945Z,37.96
2023-05-21T11:52:08.116Z,38.92
2023-05-21T11:56:20.917Z,37.98
2023-05-21T12:00:40.451Z,36.33
2023-05-21T12:04:53.038Z,36.72
2023-05-21T12:09:05.537Z,37.58
2023-05-21T12:13:17.927Z,37.24
2023-05-21T12:17:32.092Z,38.49
2023-05-21T12:21:44.684Z,38.90
2023-05-21T12:25:57.744Z,38.93
2023-05-21T12:30:10.434Z,39.67
2023-05-21T12:34:47.663Z,41.17
2023-05-21T12:39:00.325Z,40.97
2023-05-21T12:43:12.934Z,39.81
2023-05-21T12:47:27.209Z,40.47
2023-05-21T12:51:40.547Z,40.21
2023-05-21T12:55:56.676Z,40.68
2023-05-21T13:00:10.622Z,42.23
2023-05-21T13:04:24.563Z,41.30
2023-05-21T13:08:39.140Z,39.61
2023-05-21T13:12:52.875Z,41.84
2023-05-21T13:17:06.360Z,43.36
2023-05-21T13:21:19.115Z,43.32
2023-05-21T13:25:35.013Z,43.04
2023-05-21T13:29:47.422Z,43.30
2023-05-21T13:34:02.016Z,43.55
2023-05-21T13:38:14.533Z,43.26
2023-05-21T13:42:26.881Z,44.95
2023-05-21T13:46:39.848Z,47.97
2023-05-21T13:50:52.852Z,49.36
2023-05-21T13:55:05.955Z,49.42
2023-05-21T13:59:18.483Z,48.60
2023-05-21T14:03:31.463Z,47.33
2023-05-21T14:07:43.997Z,47.43
2023-05-21T14:11:57.483Z,48.38
2023-05-21T14:16:09.920Z,48.78
2023-05-21T14:20:22.294Z,49.00
2023-05-21T14:24:34.719Z,48.71
2023-05-21T14:28:47.202Z,48.40
2023-05-21T14:32:59.636Z,47.91
2023-05-21T14:37:13.345Z,47.49
2023-05-21T14:41:28.087Z,48.30
2023-05-21T14:45:41.326Z,48.68
2023-05-21T14:49:53.826Z,50.23
2023-05-21T14:54:06.270Z,49.61
2023-05-21T14:58:18.730Z,50.70
2023-05-21T15:02:31.415Z,50.87
2023-05-21T15:06:44.256Z,51.20
2023-05-21T15:10:57.600Z,52.25
2023-05-21T15:15:10.578Z,52.73
2023-05-21T15:19:23.080Z,52.58
2023-05-21T15:23:36.822Z,52.38
2023-05-21T15:27:50.568Z,52.64
2023-05-21T15:32:05.650Z,52.95
2023-05-21T15:36:18.076Z,53.10
2023-05-21T15:40:30.560Z,52.96
2023-05-21T15:44:43.220Z,53.52
2023-05-21T15:48:55.620Z,53.87
2023-05-21T15:53:08.041Z,59.84
2023-05-21T15:57:21.189Z,65.76
2023-05-21T16:01:34.933Z,67.99
2023-05-21T16:05:47.744Z,69.31
2023-05-21T16:10:00.156Z,69.67
2023-05-21T16:14:13.264Z,70.44
2023-05-21T16:18:25.714Z,71.48
2023-05-21T16:22:38.271Z,71.01
2023-05-21T16:26:50.754Z,71.38
2023-05-21T16:31:03.703Z,71.59
2023-05-21T16:35:18.305Z,72.73
2023-05-21T16:39:30.650Z,72.98
2023-05-21T16:43:43.212Z,72.78
2023-05-21T16:47:58.084Z,74.17
2023-05-21T16:52:10.752Z,77.35
2023-05-21T16:56:23.420Z,77.72
2023-05-21T17:00:36.328Z,76.86
2023-05-21T17:04:48.744Z,74.67
2023-05-21T17:09:03.496Z,74.43
2023-05-21T17:13:22.223Z,74.62
2023-05-21T17:17:36.495Z,73.55
2023-05-21T17:21:49.066Z,73.28
2023-05-21T17:26:02.356Z,72.51
2023-05-21T17:30:15.679Z,72.79
2023-05-21T17:34:30.655Z,73.19
2023-05-21T17:38:44.190Z,72.94
2023-05-21T17:42:56.745Z,73.00
2023-05-21T17:47:09.707Z,73.13
2023-05-21T17:51:22.416Z,73.11
2023-05-21T17:55:34.909Z,73.20
2023-05-21T17:59:48.042Z,73.65
2023-05-21T18:04:00.487Z,73.82
2023-05-21T18:08:12.948Z,73.43
2023-05-21T18:12:25.452Z,74.19
2023-05-21T18:16:38.004Z,74.50
2023-05-21T18:20:52.020Z,74.34
2023-05-21T18:25:08.601Z,75.20
2023-05-21T18:29:21.390Z,74.73
2023-05-21T18:33:33.949Z,74.98
2023-05-21T18:37:47.063Z,75.51
2023-05-21T18:42:12.273Z,75.90
2023-05-21T18:46:28.293Z,75.92
2023-05-21T18:50:40.814Z,76.37
2023-05-21T18:54:54.985Z,76.03
2023-05-21T18:59:08.102Z,76.13
2023-05-21T19:03:20.399Z,75.92
2023-05-21T19:07:32.823Z,76.25
2023-05-21T19:11:45.273Z,76.41
2023-05-21T19:15:58.853Z,76.46
2023-05-21T19:20:11.569Z,76.64
2023-05-21T19:24:24.011Z,76.68
2023-05-21T19:28:36.458Z,77.08
2023-05-21T19:32:49.200Z,77.28
2023-05-21T19:37:01.930Z,75.64
2023-05-21T19:41:15.897Z,76.38
2023-05-21T19:45:28.283Z,76.48
2023-05-21T19:49:43.163Z,76.67
2023-05-21T19:53:55.772Z,76.42
2023-05-21T19:58:09.370Z,76.61
2023-05-21T20:02:23.475Z,75.92
2023-05-21T20:06:36.406Z,75.91
2023-05-21T20:10:51.390Z,75.88
2023-05-21T20:15:06.916Z,74.47
2023-05-21T20:19:20.866Z,72.90
2023-05-21T20:23:33.283Z,72.88
2023-05-21T20:27:45.777Z,73.60
2023-05-21T20:31:58.741Z,71.98
2023-05-21T20:36:11.359Z,71.97
2023-05-21T20:40:23.943Z,72.19
2023-05-21T20:44:36.738Z,72.35
2023-05-21T20:48:49.824Z,72.08
2023-05-21T20:53:03.312Z,73.03
2023-05-21T20:57:17.235Z,72.12
2023-05-21T21:01:30.662Z,73.57
2023-05-21T21:05:43.178Z,74.58
2023-05-21T21:09:56.009Z,75.00
2023-05-21T21:14:08.967Z,74.76
2023-05-21T21:18:21.358Z,75.38
2023-05-21T21:22:34.389Z,75.86
2023-05-21T21:26:47.067Z,77.95
2023-05-21T21:30:59.607Z,79.89
2023-05-21T21:35:11.901Z,80.40
2023-05-21T21:39:26.400Z,80.52
2023-05-21T21:43:39.021Z,79.74
2023-05-21T21:47:51.404Z,79.04
2023-05-21T21:52:03.984Z,79.03
2023-05-21T21:56:16.752Z,78.48
2023-05-21T22:00:29.992Z,79.00
2023-05-21T22:04:44.078Z,78.47
2023-05-21T22:08:56.574Z,77.29
2023-05-21T22:13:09.379Z,78.36
2023-05-21T22:17:23.737Z,79.56
2023-05-21T22:21:36.318Z,79.92
2023-05-21T22:25:49.029Z,80.21
2023-05-21T22:30:03.952Z,79.68
2023-05-21T22:34:16.626Z,80.32
2023-05-21T22:38:29.001Z,80.87
2023-05-21T22:42:41.974Z,80.48
2023-05-21T22:47:01.054Z,79.91
2023-05-21T22:51:14.419Z,80.91
2023-05-21T22:55:26.918Z,81.88
2023-05-21T22:59:39.331Z,82.63
2023-05-21T23:03:51.930Z,82.52
2023-05-21T23:08:04.632Z,83.00
2023-05-21T23:12:17.236Z,82.54
2023-05-21T23:16:31.058Z,82.82
2023-05-21T23:20:44.071Z,83.53
2023-05-21T23:24:56.479Z,83.87
2023-05-21T23:29:08.961Z,83.54
2023-05-21T23:33:21.881Z,83.90
2023-05-21T23:37:34.308Z,83.47
2023-05-21T23:41:47.026Z,83.87
2023-05-21T23:45:59.513Z,83.77
2023-05-21T23:50:12.047Z,84.22
2023-05-21T23:54:24.384Z,84.20
2023-05-21T23:58:36.719Z,84.10
